Terminal Aerodrome Forecast
Issued by NWS

Home | Current Version | Previous Version | Graphics & Text | Print | Product List | Glossary On
Versions: 1 2 3 4 5 6 7 8 9 10 11 12 13 14 15 16 17 18 19
000
FTUS42 KMHX 170045 AAA
TAFISO
TAF AMD
KISO 170045Z 1701/1724 35013G20KT P6SM -RA SCT025 OVC040
     FM170300 35009KT P6SM OVC020
     FM171100 04010KT P6SM SCT020 OVC035
     FM171800 08008KT P6SM OVC020
     FM172100 VRB04KT P6SM VCSH OVC008
      AMD LTD TO CLD VIS AND WIND=

USA.gov is the U.S. government's official web portal to all federal, state and local government web resources and services.